Time;durP1;ratioP1;P1;durP2;ratioP2;P2;SDS_P1;SDS_P2;PMS_P1;PMS_P2;Temp;Humidity;BMP_temperature;BMP_pressure;BME280_temperature;BME280_humidity;BME280_pressure;Samples;Min_cycle;Max_cycle;Signal;HPM_P1;HPM_P2
2022/01/29 00:01:05;;;;;;;0.70;0.70;;;0.60;99.90;;;;;;5051090;28;20198;-83
2022/01/29 00:03:31;;;;;;;0.68;0.68;;;0.60;99.90;;;;;;5037116;28;20209;-82
2022/01/29 00:05:58;;;;;;;0.70;0.70;;;0.60;99.90;;;;;;5055290;28;20348;-82
2022/01/29 00:08:24;;;;;;;0.60;0.60;;;0.70;99.90;;;;;;5037601;28;20650;-81
2022/01/29 00:10:55;;;;;;;0.57;0.57;;;0.70;99.90;;;;;;5034168;28;20222;-82
2022/01/29 00:13:21;;;;;;;2.67;2.35;;;0.80;99.90;;;;;;5019582;28;20202;-82
2022/01/29 00:15:46;;;;;;;0.60;0.60;;;0.70;99.90;;;;;;5038307;28;20216;-82
2022/01/29 00:18:12;;;;;;;1.08;1.08;;;0.70;99.90;;;;;;5037439;28;20198;-82
2022/01/29 00:20:38;;;;;;;0.60;0.60;;;0.80;99.90;;;;;;5053631;28;20249;-82
2022/01/29 00:23:03;;;;;;;0.68;0.68;;;0.80;99.90;;;;;;5048571;28;20210;-82
2022/01/29 00:25:29;;;;;;;0.60;0.60;;;0.90;99.90;;;;;;5054492;28;20572;-83
2022/01/29 00:27:57;;;;;;;0.60;0.60;;;0.90;99.90;;;;;;5036180;28;20270;-83
2022/01/29 00:30:30;;;;;;;0.60;0.60;;;0.90;99.90;;;;;;5053842;28;20561;-83
2022/01/29 00:32:55;;;;;;;0.70;0.70;;;0.90;99.90;;;;;;5054451;28;20213;-83
2022/01/29 00:35:21;;;;;;;0.70;0.70;;;0.90;99.90;;;;;;5054279;28;20738;-83
2022/01/29 00:37:47;;;;;;;0.70;0.70;;;0.80;99.90;;;;;;5054365;28;20248;-82
2022/01/29 00:40:14;;;;;;;0.88;0.85;;;0.90;99.90;;;;;;5042206;28;20213;-83
2022/01/29 00:42:40;;;;;;;0.68;0.68;;;0.90;99.90;;;;;;5038540;28;20215;-81
2022/01/29 00:45:06;;;;;;;0.70;0.70;;;1.00;99.90;;;;;;5036381;28;20217;-81
2022/01/29 00:47:35;;;;;;;0.82;0.82;;;1.00;99.90;;;;;;5046007;28;20241;-82
2022/01/29 00:50:01;;;;;;;0.60;0.60;;;1.10;99.90;;;;;;5027584;28;20222;-82
2022/01/29 00:52:26;;;;;;;0.63;0.63;;;1.10;99.90;;;;;;5033918;28;20566;-82
2022/01/29 00:54:52;;;;;;;0.60;0.60;;;1.20;99.90;;;;;;5031835;28;20198;-80
2022/01/29 00:57:18;;;;;;;0.60;0.60;;;1.20;99.90;;;;;;5034213;28;20251;-81
2022/01/29 00:59:47;;;;;;;0.75;0.75;;;1.30;99.90;;;;;;5033768;28;20225;-81
2022/01/29 01:02:13;;;;;;;0.60;0.60;;;1.30;99.90;;;;;;5029090;28;20199;-81
2022/01/29 01:04:40;;;;;;;0.60;0.60;;;1.40;99.90;;;;;;5004570;28;20209;-82
2022/01/29 01:07:10;;;;;;;0.68;0.68;;;1.40;99.90;;;;;;5032977;28;20209;-82
2022/01/29 01:09:36;;;;;;;0.68;0.68;;;1.40;99.90;;;;;;5016662;28;20205;-82
2022/01/29 01:12:02;;;;;;;0.60;0.60;;;1.50;99.90;;;;;;5033800;28;20681;-82
2022/01/29 01:14:28;;;;;;;0.63;0.63;;;1.50;99.90;;;;;;5015942;28;20202;-82
2022/01/29 01:16:54;;;;;;;0.57;0.57;;;1.50;99.90;;;;;;5033810;28;20649;-82
2022/01/29 01:19:25;;;;;;;0.70;0.70;;;1.50;99.90;;;;;;5015862;28;20249;-82
2022/01/29 01:21:54;;;;;;;0.80;0.80;;;1.50;99.90;;;;;;5016683;28;20198;-82
2022/01/29 01:24:20;;;;;;;0.70;0.70;;;1.60;99.90;;;;;;5016762;28;20197;-82
2022/01/29 01:26:46;;;;;;;0.70;0.70;;;1.60;99.90;;;;;;5033960;28;20203;-82
2022/01/29 01:29:12;;;;;;;0.50;0.50;;;1.70;99.90;;;;;;5026909;28;20610;-82
2022/01/29 01:31:39;;;;;;;0.70;0.70;;;1.70;99.90;;;;;;5017172;28;20260;-82
2022/01/29 01:34:06;;;;;;;0.63;0.63;;;1.80;99.90;;;;;;5003270;28;20230;-82
2022/01/29 01:36:34;;;;;;;0.50;0.50;;;1.70;99.90;;;;;;5011751;28;20202;-82
2022/01/29 01:39:05;;;;;;;0.70;0.70;;;1.70;99.90;;;;;;5017197;28;20689;-82
2022/01/29 01:41:37;;;;;;;0.50;0.50;;;1.80;99.90;;;;;;5016399;28;20209;-81
2022/01/29 01:44:04;;;;;;;0.68;0.68;;;1.80;99.90;;;;;;5018037;28;20233;-82
2022/01/29 01:46:30;;;;;;;0.70;0.70;;;1.80;99.90;;;;;;5015482;28;20209;-82
2022/01/29 01:48:59;;;;;;;0.57;0.57;;;1.80;99.90;;;;;;5005625;28;20215;-81
2022/01/29 01:51:25;;;;;;;0.60;0.60;;;1.80;99.90;;;;;;5024302;28;20226;-81
2022/01/29 01:53:51;;;;;;;0.80;0.80;;;1.80;99.90;;;;;;5054864;28;20201;-82
2022/01/29 01:56:17;;;;;;;0.60;0.60;;;1.80;99.90;;;;;;5052942;28;20200;-81
2022/01/29 01:58:42;;;;;;;0.60;0.60;;;1.90;99.90;;;;;;5035478;28;20206;-81
2022/01/29 02:01:08;;;;;;;0.50;0.50;;;1.90;99.90;;;;;;5041921;28;20200;-82
2022/01/29 02:03:34;;;;;;;0.60;0.60;;;1.90;99.90;;;;;;5045125;28;20206;-81
2022/01/29 02:06:01;;;;;;;0.50;0.50;;;1.90;99.90;;;;;;5041062;28;20585;-81
2022/01/29 02:08:26;;;;;;;0.60;0.60;;;1.90;99.90;;;;;;5045148;28;20291;-81
2022/01/29 02:11:00;;;;;;;0.57;0.57;;;1.90;99.90;;;;;;5035893;28;20288;-82
2022/01/29 02:13:28;;;;;;;0.52;0.52;;;1.90;99.90;;;;;;5053729;28;20201;-82
2022/01/29 02:15:55;;;;;;;0.60;0.60;;;1.90;99.90;;;;;;5057971;28;20224;-81
2022/01/29 02:18:21;;;;;;;0.60;0.60;;;1.90;99.90;;;;;;5047768;28;20197;-81
2022/01/29 02:20:48;;;;;;;1.42;1.33;;;1.90;99.90;;;;;;5040038;28;20571;-81
2022/01/29 02:23:14;;;;;;;0.50;0.50;;;1.90;99.90;;;;;;5068199;28;20258;-81
2022/01/29 02:25:41;;;;;;;0.50;0.50;;;1.90;99.90;;;;;;5037672;28;20201;-82
2022/01/29 02:28:12;;;;;;;0.60;0.60;;;1.90;99.90;;;;;;5035931;28;20201;-82
2022/01/29 02:30:40;;;;;;;0.57;0.57;;;1.90;99.90;;;;;;5036857;28;20213;-83
2022/01/29 02:33:10;;;;;;;0.70;0.70;;;1.90;99.90;;;;;;5054542;28;20205;-82
2022/01/29 02:35:41;;;;;;;0.98;0.85;;;2.00;99.90;;;;;;5052736;28;20284;-82
2022/01/29 02:38:08;;;;;;;0.55;0.55;;;2.00;99.90;;;;;;5036966;28;20351;-82
2022/01/29 02:40:38;;;;;;;0.50;0.50;;;2.00;99.90;;;;;;5036953;28;20205;-82
2022/01/29 02:43:14;;;;;;;0.63;0.63;;;2.00;99.90;;;;;;5038180;28;20583;-81
2022/01/29 02:45:42;;;;;;;0.55;0.55;;;2.00;99.90;;;;;;5039551;28;20200;-82
2022/01/29 02:48:08;;;;;;;0.60;0.60;;;2.00;99.90;;;;;;5054984;28;20711;-82
2022/01/29 02:50:34;;;;;;;0.60;0.60;;;2.00;99.90;;;;;;5037486;28;20642;-82
2022/01/29 02:53:03;;;;;;;0.60;0.60;;;2.00;99.90;;;;;;5056856;28;20259;-82
2022/01/29 02:55:29;;;;;;;0.70;0.70;;;2.00;99.90;;;;;;5073574;28;20287;-81
2022/01/29 02:57:55;;;;;;;0.50;0.50;;;2.00;99.90;;;;;;5055511;28;20222;-82
2022/01/29 03:00:22;;;;;;;0.60;0.60;;;2.10;99.90;;;;;;5055809;28;20212;-82
2022/01/29 03:02:48;;;;;;;0.50;0.50;;;2.10;99.90;;;;;;5037249;28;20205;-82
2022/01/29 03:05:14;;;;;;;0.55;0.55;;;2.00;99.90;;;;;;5056192;28;20228;-82
2022/01/29 03:07:39;;;;;;;0.60;0.60;;;2.10;99.90;;;;;;5039297;28;20209;-82
2022/01/29 03:10:06;;;;;;;0.60;0.60;;;2.10;99.90;;;;;;5038988;28;20205;-82
2022/01/29 03:12:32;;;;;;;0.60;0.60;;;2.10;99.90;;;;;;5040123;28;20201;-82
2022/01/29 03:14:58;;;;;;;0.68;0.68;;;2.10;99.90;;;;;;5039159;28;20201;-82
2022/01/29 03:17:24;;;;;;;0.70;0.70;;;2.10;99.90;;;;;;5058029;28;20273;-82
2022/01/29 03:19:52;;;;;;;0.60;0.60;;;2.10;99.90;;;;;;5055884;28;20211;-82
2022/01/29 03:22:18;;;;;;;0.60;0.60;;;2.10;99.90;;;;;;5038747;28;20206;-82
2022/01/29 03:24:44;;;;;;;1.52;1.42;;;2.10;99.90;;;;;;5026979;28;20202;-82
2022/01/29 03:27:10;;;;;;;0.50;0.50;;;2.10;99.90;;;;;;5031007;28;20259;-82
2022/01/29 03:29:36;;;;;;;0.60;0.60;;;2.10;99.90;;;;;;5056309;28;20615;-83
2022/01/29 03:32:02;;;;;;;0.73;0.73;;;2.10;99.90;;;;;;5056615;28;20205;-81
2022/01/29 03:34:53;;;;;;;0.50;0.50;;;2.20;99.90;;;;;;5038492;28;20194;-82
2022/01/29 03:37:18;;;;;;;0.50;0.50;;;2.20;99.90;;;;;;5064336;28;20201;-81
2022/01/29 03:39:46;;;;;;;0.63;0.63;;;2.20;99.90;;;;;;5046065;28;20216;-81
2022/01/29 03:42:13;;;;;;;0.63;0.63;;;2.20;99.90;;;;;;5056218;28;20199;-82
2022/01/29 03:44:39;;;;;;;0.57;0.57;;;2.20;99.90;;;;;;5037388;28;21360;-81
2022/01/29 03:47:05;;;;;;;0.60;0.60;;;2.20;99.90;;;;;;5055245;28;20602;-82
2022/01/29 03:49:31;;;;;;;0.68;0.68;;;2.20;99.90;;;;;;5053906;28;20218;-82
2022/01/29 03:51:57;;;;;;;0.65;0.65;;;2.20;99.90;;;;;;5018531;28;20214;-82
2022/01/29 03:54:22;;;;;;;0.70;0.70;;;2.20;99.90;;;;;;5018334;28;20617;-82
2022/01/29 03:56:48;;;;;;;0.63;0.63;;;2.20;99.90;;;;;;5018296;28;20204;-82
2022/01/29 03:59:14;;;;;;;0.70;0.70;;;2.20;99.90;;;;;;5035263;28;20209;-82
2022/01/29 04:01:39;;;;;;;0.70;0.70;;;2.20;99.90;;;;;;5017460;28;20255;-82
2022/01/29 04:04:05;;;;;;;0.70;0.70;;;2.20;99.90;;;;;;5013437;28;20202;-82
2022/01/29 04:06:31;;;;;;;0.77;0.77;;;2.20;99.90;;;;;;5014068;28;20201;-82
2022/01/29 04:08:57;;;;;;;0.50;0.50;;;2.20;99.90;;;;;;5035681;28;20214;-82
2022/01/29 04:11:24;;;;;;;0.60;0.60;;;2.20;99.90;;;;;;5035124;28;20222;-81
2022/01/29 04:13:49;;;;;;;0.60;0.60;;;2.30;99.90;;;;;;5035048;28;20233;-82
2022/01/29 04:16:17;;;;;;;0.50;0.50;;;2.30;99.90;;;;;;5049874;28;20201;-82
2022/01/29 04:18:43;;;;;;;0.70;0.70;;;2.20;99.90;;;;;;5020278;28;20684;-83
2022/01/29 04:21:09;;;;;;;0.88;0.88;;;2.20;99.90;;;;;;5048731;28;20205;-81
2022/01/29 04:23:36;;;;;;;0.63;0.63;;;2.30;99.90;;;;;;5015877;28;20209;-82
2022/01/29 04:26:03;;;;;;;0.70;0.70;;;2.20;99.90;;;;;;5044242;28;20259;-82
2022/01/29 04:28:33;;;;;;;0.60;0.60;;;2.20;99.90;;;;;;5021996;28;20210;-82
2022/01/29 04:31:04;;;;;;;0.60;0.60;;;2.20;99.90;;;;;;5046664;28;20205;-82
2022/01/29 04:33:30;;;;;;;0.60;0.60;;;2.30;99.90;;;;;;5019778;28;20214;-82
2022/01/29 04:36:02;;;;;;;0.50;0.50;;;2.30;99.90;;;;;;5026732;28;20234;-82
2022/01/29 04:38:29;;;;;;;0.60;0.60;;;2.30;99.90;;;;;;5034189;28;20214;-82
2022/01/29 04:40:56;;;;;;;0.68;0.68;;;2.30;99.90;;;;;;5017291;28;20202;-82
2022/01/29 04:43:22;;;;;;;0.70;0.70;;;2.30;99.90;;;;;;5033296;28;20277;-82
2022/01/29 04:45:48;;;;;;;0.60;0.60;;;2.30;99.90;;;;;;5045259;28;20209;-82
2022/01/29 04:48:14;;;;;;;0.60;0.60;;;2.30;99.90;;;;;;5022631;28;20241;-82
2022/01/29 04:50:40;;;;;;;0.60;0.60;;;2.30;99.90;;;;;;5046810;28;21249;-83
2022/01/29 04:53:06;;;;;;;0.77;0.77;;;2.40;99.90;;;;;;5043701;28;20205;-82
2022/01/29 04:55:33;;;;;;;2.20;1.45;;;2.40;99.90;;;;;;5054114;28;20205;-82
2022/01/29 04:57:58;;;;;;;0.70;0.70;;;2.40;99.90;;;;;;5043266;28;20220;-82
2022/01/29 05:00:25;;;;;;;0.70;0.70;;;2.40;99.90;;;;;;5037464;28;20202;-82
2022/01/29 05:02:54;;;;;;;0.70;0.70;;;2.30;99.90;;;;;;5036729;28;20209;-84
2022/01/29 05:05:21;;;;;;;0.50;0.50;;;2.40;99.90;;;;;;5036951;28;20244;-83
2022/01/29 05:07:47;;;;;;;0.60;0.60;;;2.30;99.90;;;;;;5053111;28;20288;-83
2022/01/29 05:10:14;;;;;;;0.50;0.50;;;2.40;99.90;;;;;;5038394;28;20197;-82
2022/01/29 05:12:47;;;;;;;1.58;0.73;;;2.40;99.90;;;;;;5053506;28;20288;-82
2022/01/29 05:28:37;;;;;;;0.52;0.52;;;2.40;99.90;;;;;;5053334;28;20227;-82
2022/01/29 05:31:03;;;;;;;0.50;0.50;;;2.40;99.90;;;;;;5037589;28;20298;-83
2022/01/29 05:33:28;;;;;;;0.55;0.55;;;2.40;99.90;;;;;;5052913;28;20213;-82
2022/01/29 05:35:54;;;;;;;0.60;0.60;;;2.40;99.90;;;;;;5052584;28;20205;-83
2022/01/29 05:38:20;;;;;;;0.60;0.60;;;2.40;99.90;;;;;;5036575;28;20223;-83
2022/01/29 05:40:46;;;;;;;0.65;0.65;;;2.40;99.90;;;;;;5036426;28;20224;-82
2022/01/29 05:43:11;;;;;;;0.70;0.70;;;2.40;99.90;;;;;;5029988;28;20226;-83
2022/01/29 05:45:37;;;;;;;0.60;0.60;;;2.40;99.90;;;;;;5024405;28;20288;-83
2022/01/29 05:48:03;;;;;;;0.60;0.60;;;2.50;99.90;;;;;;5053364;28;20210;-82
2022/01/29 05:50:29;;;;;;;0.70;0.70;;;2.50;99.90;;;;;;5035742;28;20219;-82
2022/01/29 05:52:54;;;;;;;0.60;0.60;;;2.50;99.90;;;;;;5036148;28;20197;-83
2022/01/29 05:55:21;;;;;;;0.60;0.60;;;2.50;99.90;;;;;;5054974;28;20197;-82
2022/01/29 05:57:48;;;;;;;0.60;0.60;;;2.40;99.90;;;;;;5036084;28;20205;-83
2022/01/29 06:00:14;;;;;;;0.70;0.70;;;2.40;99.90;;;;;;5036868;28;20197;-83
2022/01/29 06:02:40;;;;;;;0.55;0.55;;;2.40;99.90;;;;;;5017495;28;20291;-83
2022/01/29 06:05:06;;;;;;;0.57;0.57;;;2.50;99.90;;;;;;5019043;28;20239;-83
2022/01/29 06:07:32;;;;;;;0.60;0.60;;;2.50;99.90;;;;;;5017775;28;20209;-83
2022/01/29 06:09:58;;;;;;;0.40;0.40;;;2.50;99.90;;;;;;5051816;28;20221;-82
2022/01/29 06:12:24;;;;;;;0.60;0.60;;;2.50;99.90;;;;;;5035210;28;20197;-83
2022/01/29 06:14:50;;;;;;;0.60;0.60;;;2.60;99.90;;;;;;5054080;28;20205;-83
2022/01/29 06:17:16;;;;;;;0.70;0.70;;;2.60;99.90;;;;;;5037180;28;20676;-83
2022/01/29 06:19:42;;;;;;;0.60;0.60;;;2.70;99.90;;;;;;5057115;28;20687;-83
2022/01/29 06:22:11;;;;;;;0.60;0.60;;;2.70;99.90;;;;;;5040244;28;20205;-83
2022/01/29 06:24:37;;;;;;;0.60;0.60;;;2.70;99.90;;;;;;5039383;28;20204;-83
2022/01/29 06:27:03;;;;;;;1.08;1.00;;;2.80;99.90;;;;;;5040180;28;20575;-83
2022/01/29 06:29:29;;;;;;;0.50;0.50;;;2.80;99.90;;;;;;5039953;28;20204;-83
2022/01/29 06:31:54;;;;;;;0.47;0.47;;;2.70;99.90;;;;;;5039757;28;20241;-84
2022/01/29 06:34:20;;;;;;;1.27;1.17;;;2.80;99.90;;;;;;5038331;28;20240;-82
2022/01/29 06:36:46;;;;;;;0.60;0.60;;;2.70;99.90;;;;;;5058052;28;20576;-83
2022/01/29 06:39:11;;;;;;;0.50;0.50;;;2.70;99.90;;;;;;5058669;28;20202;-83
2022/01/29 06:41:37;;;;;;;0.50;0.50;;;2.80;99.90;;;;;;5038626;28;20233;-83
2022/01/29 06:44:10;;;;;;;0.60;0.60;;;2.90;99.90;;;;;;5058689;28;20200;-84
2022/01/29 06:46:37;;;;;;;0.60;0.60;;;2.80;99.90;;;;;;5037260;28;20205;-83
2022/01/29 06:49:03;;;;;;;0.60;0.60;;;2.80;99.90;;;;;;5022294;28;20223;-83
2022/01/29 06:51:29;;;;;;;0.70;0.70;;;2.80;99.90;;;;;;5039507;28;20229;-83
2022/01/29 06:53:54;;;;;;;0.50;0.50;;;2.90;99.90;;;;;;5022110;28;20201;-83
2022/01/29 06:59:12;;;;;;;0.68;0.68;;;2.90;99.90;;;;;;5040296;28;20208;-83
2022/01/29 07:01:38;;;;;;;0.60;0.60;;;3.00;99.90;;;;;;5056156;28;21510;-83
2022/01/29 07:04:04;;;;;;;0.50;0.50;;;3.00;99.90;;;;;;5038903;28;20209;-83
2022/01/29 07:06:29;;;;;;;0.60;0.60;;;3.00;99.90;;;;;;5039240;28;20205;-83
2022/01/29 07:08:55;;;;;;;0.70;0.70;;;2.90;99.90;;;;;;5039181;28;20284;-82
2022/01/29 07:11:23;;;;;;;0.50;0.50;;;2.90;99.90;;;;;;5040818;28;20214;-82
2022/01/29 07:13:55;;;;;;;0.60;0.60;;;2.90;99.90;;;;;;5036512;28;20657;-83
2022/01/29 07:16:20;;;;;;;0.60;0.60;;;2.90;99.90;;;;;;5053009;28;20270;-83
2022/01/29 07:18:46;;;;;;;0.70;0.70;;;2.90;99.90;;;;;;5041538;28;20685;-84
2022/01/29 07:21:11;;;;;;;0.88;0.88;;;3.00;99.90;;;;;;5055811;28;20209;-83
2022/01/29 07:23:37;;;;;;;0.68;0.68;;;3.00;99.90;;;;;;5039396;28;20579;-86
2022/01/29 07:26:14;;;;;;;0.50;0.50;;;3.10;99.90;;;;;;5039960;28;20578;-84
2022/01/29 07:43:25;;;;;;;0.50;0.50;;;2.90;99.90;;;;;;4984094;28;20220;-85
2022/01/29 07:45:56;;;;;;;0.68;0.68;;;2.90;99.90;;;;;;4978432;28;20667;-83
2022/01/29 07:49:17;;;;;;;0.50;0.50;;;3.00;99.90;;;;;;4994091;28;20269;-85
2022/01/29 07:52:02;;;;;;;0.70;0.70;;;2.90;99.90;;;;;;4976214;28;20219;-83
2022/01/29 07:55:05;;;;;;;0.60;0.60;;;2.90;99.90;;;;;;4960982;28;20286;-85
2022/01/29 07:58:20;;;;;;;0.52;0.52;;;2.90;99.90;;;;;;4879333;29;20216;-84
2022/01/29 08:12:04;;;;;;;0.60;0.60;;;2.80;99.90;;;;;;4876891;29;20228;-84
2022/01/29 08:18:29;;;;;;;0.50;0.50;;;2.90;99.90;;;;;;4761008;30;20354;-83
2022/01/29 08:21:51;;;;;;;0.60;0.60;;;2.90;99.90;;;;;;4784293;29;20228;-82
2022/01/29 08:43:47;;;;;;;0.60;0.60;;;2.90;99.90;;;;;;4679209;30;20292;-82
2022/01/29 08:46:42;;;;;;;0.60;0.60;;;2.80;99.90;;;;;;4682034;30;20237;-82
2022/01/29 08:49:18;;;;;;;0.68;0.68;;;2.70;99.90;;;;;;4688503;30;20253;-83
2022/01/29 08:55:09;;;;;;;0.52;0.52;;;2.80;99.90;;;;;;4748834;30;20224;-82
2022/01/29 08:58:07;;;;;;;0.60;0.60;;;2.80;99.90;;;;;;4748384;30;20310;-84
2022/01/29 09:00:44;;;;;;;0.60;0.60;;;2.80;99.90;;;;;;4762685;30;20238;-82
2022/01/29 09:03:37;;;;;;;0.65;0.65;;;2.80;99.90;;;;;;4736132;30;20213;-84
2022/01/29 09:06:03;;;;;;;0.52;0.52;;;2.80;99.90;;;;;;4858203;29;20289;-83
2022/01/29 09:09:20;;;;;;;;;;;;;;;;;;;;;
2022/01/29 09:11:51;;;;;;;0.50;0.50;;;2.90;99.90;;;;;;4930939;28;20218;-83
2022/01/29 09:15:07;;;;;;;0.50;0.50;;;3.10;99.90;;;;;;4989064;28;20203;-82
2022/01/29 09:24:39;;;;;;;0.60;0.60;;;3.20;99.90;;;;;;5019502;28;20312;-84
2022/01/29 09:40:52;;;;;;;0.60;0.60;;;3.50;99.90;;;;;;4952011;28;20208;-83
2022/01/29 09:43:35;;;;;;;0.50;0.50;;;3.60;99.90;;;;;;4937186;29;20664;-84
2022/01/29 09:46:32;;;;;;;0.60;0.60;;;3.60;99.90;;;;;;4955795;28;20240;-83
2022/01/29 09:52:55;;;;;;;0.60;0.60;;;3.70;99.90;;;;;;5032207;28;20236;-84
2022/01/29 09:58:55;;;;;;;0.60;0.60;;;3.70;99.90;;;;;;5001959;28;20202;-84
2022/01/29 10:01:53;;;;;;;;;;;;;;;;;;;;;
2022/01/29 10:04:59;;;;;;;0.63;0.63;;;3.70;99.90;;;;;;5021385;28;20240;-84
2022/01/29 10:11:32;;;;;;;;;;;;;;;;;;;;;
2022/01/29 10:14:04;;;;;;;0.47;0.47;;;3.70;99.90;;;;;;5032068;28;20210;-83
2022/01/29 10:16:52;;;;;;;0.70;0.70;;;3.60;99.90;;;;;;5014501;28;20218;-83
2022/01/29 10:19:36;;;;;;;0.50;0.50;;;3.70;99.90;;;;;;5015836;28;20267;-83
2022/01/29 10:22:21;;;;;;;0.60;0.60;;;3.60;99.90;;;;;;5006971;28;20224;-83
2022/01/29 10:25:15;;;;;;;0.70;0.70;;;3.60;99.90;;;;;;5014672;28;20372;-84
2022/01/29 10:28:22;;;;;;;0.60;0.60;;;3.60;99.90;;;;;;5011123;28;20213;-82
2022/01/29 10:31:25;;;;;;;0.60;0.60;;;3.70;99.90;;;;;;5000895;28;20263;-84
2022/01/29 10:37:40;;;;;;;0.60;0.60;;;3.80;99.90;;;;;;5026440;28;20674;-84
2022/01/29 10:40:34;;;;;;;0.60;0.60;;;3.80;99.90;;;;;;5014630;28;20208;-84
2022/01/29 10:43:23;;;;;;;0.50;0.50;;;3.70;99.90;;;;;;4999197;28;20195;-84
2022/01/29 10:53:56;;;;;;;0.55;0.55;;;3.80;99.90;;;;;;4972735;28;20688;-83
2022/01/29 10:57:10;;;;;;;0.47;0.47;;;3.80;99.90;;;;;;4986917;28;20323;-83
2022/01/29 11:00:30;;;;;;;0.60;0.60;;;3.70;99.90;;;;;;4999485;28;20215;-84
2022/01/29 11:03:55;;;;;;;;;;;;;;;;;;;;;
2022/01/29 11:07:28;;;;;;;0.60;0.60;;;3.60;99.90;;;;;;4989509;28;20219;-84
2022/01/29 11:10:34;;;;;;;0.60;0.60;;;3.70;99.90;;;;;;4934493;28;20593;-85
2022/01/29 11:13:46;;;;;;;0.65;0.65;;;3.60;99.90;;;;;;4992982;28;20252;-84
2022/01/29 11:16:56;;;;;;;0.55;0.55;;;3.60;99.90;;;;;;4979669;28;20215;-84
2022/01/29 11:22:42;;;;;;;0.80;0.80;;;3.70;99.90;;;;;;4984164;28;20219;-84
2022/01/29 11:29:12;;;;;;;0.50;0.50;;;3.90;99.90;;;;;;4998970;28;20249;-84
2022/01/29 11:32:19;;;;;;;0.68;0.68;;;3.90;99.90;;;;;;5023799;28;20244;-83
2022/01/29 11:38:42;;;;;;;;;;;;;;;;;;;;;
2022/01/29 11:45:06;;;;;;;;;;;;;;;;;;;;;
2022/01/29 11:47:55;;;;;;;;;;;;;;;;;;;;;
2022/01/29 11:51:08;;;;;;;0.60;0.60;;;4.30;99.90;;;;;;5056821;28;20209;-84
2022/01/29 11:54:21;;;;;;;0.50;0.50;;;4.30;99.90;;;;;;5037029;28;20213;-85
2022/01/29 11:57:31;;;;;;;0.50;0.50;;;4.30;99.90;;;;;;5053853;28;20287;-84
2022/01/29 12:00:48;;;;;;;;;;;;;;;;;;;;;
2022/01/29 12:07:25;;;;;;;0.60;0.60;;;4.40;99.90;;;;;;5052228;28;20274;-84
2022/01/29 12:17:57;;;;;;;0.63;0.63;;;5.20;99.90;;;;;;4910255;29;20244;-84
2022/01/29 12:24:33;;;;;;;0.60;0.60;;;5.40;99.90;;;;;;4878990;29;20290;-86
2022/01/29 12:35:28;;;;;;;0.70;0.70;;;5.50;99.90;;;;;;4899748;29;20214;-85
2022/01/29 12:52:13;;;;;;;0.45;0.45;;;5.70;99.90;;;;;;4788669;29;20253;-84
2022/01/29 12:55:32;;;;;;;;;;;;;;;;;;;;;
2022/01/29 12:58:40;;;;;;;0.50;0.50;;;5.80;99.90;;;;;;4761144;30;20235;-83
2022/01/29 13:08:58;;;;;;;0.88;0.88;;;6.00;99.90;;;;;;4825183;29;20268;-84
2022/01/29 13:12:21;;;;;;;5.63;2.65;;;6.00;99.90;;;;;;4854011;29;20994;-85
2022/01/29 13:19:03;;;;;;;;;;;;;;;;;;;;;
2022/01/29 13:22:09;;;;;;;;;;;;;;;;;;;;;
2022/01/29 13:24:38;;;;;;;0.60;0.60;;;6.00;99.90;;;;;;4825769;29;20228;-84
2022/01/29 13:27:12;;;;;;;1.10;1.00;;;6.10;99.90;;;;;;4856994;29;20752;-85
2022/01/29 13:29:46;;;;;;;1.08;1.08;;;6.00;99.90;;;;;;4855341;29;20212;-84
2022/01/29 13:32:15;;;;;;;0.63;0.63;;;6.10;99.90;;;;;;4839819;29;20239;-84
2022/01/29 13:34:43;;;;;;;0.60;0.60;;;6.10;99.90;;;;;;4839450;29;20216;-84
2022/01/29 13:37:30;;;;;;;0.70;0.70;;;6.00;99.90;;;;;;4860376;29;20212;-83
2022/01/29 13:39:57;;;;;;;0.60;0.60;;;6.00;99.90;;;;;;4894096;29;20292;-84
2022/01/29 13:42:26;;;;;;;0.50;0.50;;;5.90;99.90;;;;;;4948301;29;20205;-84
2022/01/29 13:45:20;;;;;;;0.70;0.70;;;5.80;99.90;;;;;;4963788;28;20210;-84
2022/01/29 13:48:08;;;;;;;1.33;1.23;;;5.90;99.90;;;;;;5006442;28;20210;-84
2022/01/29 13:50:50;;;;;;;0.60;0.60;;;5.90;99.90;;;;;;5019526;28;20742;-84
2022/01/29 13:53:18;;;;;;;0.70;0.70;;;5.90;99.90;;;;;;5030802;28;20218;-84
2022/01/29 13:56:05;;;;;;;0.60;0.60;;;5.80;99.90;;;;;;5021219;28;20198;-84
2022/01/29 13:58:58;;;;;;;0.52;0.52;;;5.80;99.90;;;;;;5048569;28;20216;-84
2022/01/29 14:01:46;;;;;;;0.70;0.70;;;5.70;99.90;;;;;;5048634;28;20312;-84
2022/01/29 14:04:33;;;;;;;0.60;0.60;;;5.70;99.90;;;;;;5032288;28;20616;-84
2022/01/29 14:07:07;;;;;;;0.60;0.60;;;5.60;99.90;;;;;;5048398;28;20357;-84
2022/01/29 14:09:45;;;;;;;0.60;0.60;;;5.60;99.90;;;;;;5028260;28;20206;-84
2022/01/29 14:12:23;;;;;;;11.35;1.95;;;5.60;99.90;;;;;;5027672;28;20218;-86
2022/01/29 14:15:11;;;;;;;11.02;1.65;;;5.50;99.90;;;;;;5046858;28;20272;-87
2022/01/29 14:17:38;;;;;;;0.60;0.60;;;5.40;99.90;;;;;;5032990;28;20211;-88
2022/01/29 14:20:10;;;;;;;0.70;0.70;;;5.40;99.90;;;;;;5049353;28;20209;-87
2022/01/29 14:22:37;;;;;;;0.75;0.75;;;5.50;99.90;;;;;;5015071;28;20615;-87
2022/01/29 14:25:14;;;;;;;0.60;0.60;;;5.50;99.90;;;;;;5015001;28;20233;-86
2022/01/29 14:27:43;;;;;;;0.60;0.60;;;5.50;99.90;;;;;;5031325;28;20197;-85
2022/01/29 14:30:11;;;;;;;0.50;0.50;;;5.40;99.90;;;;;;5033324;28;20201;-85
2022/01/29 14:32:49;;;;;;;0.32;0.32;;;5.40;99.90;;;;;;5032629;28;20214;-87
2022/01/29 14:35:23;;;;;;;0.60;0.60;;;5.50;99.90;;;;;;5031634;28;20292;-86
2022/01/29 14:38:10;;;;;;;;;;;;;;;;;;;;;
2022/01/29 14:40:54;;;;;;;0.57;0.57;;;5.50;99.90;;;;;;5018269;28;20204;-86
2022/01/29 14:43:42;;;;;;;0.55;0.55;;;5.60;99.90;;;;;;5036241;28;20193;-85
2022/01/29 14:47:04;;;;;;;0.50;0.50;;;5.60;99.90;;;;;;5012310;28;20268;-85
2022/01/29 14:50:09;;;;;;;0.55;0.55;;;5.60;99.90;;;;;;5035663;28;20202;-86
2022/01/29 14:55:45;;;;;;;0.60;0.60;;;5.80;99.90;;;;;;4954592;28;20714;-86
2022/01/29 14:58:54;;;;;;;0.60;0.60;;;5.80;99.90;;;;;;4954890;29;20581;-86
2022/01/29 15:05:26;;;;;;;0.60;0.60;;;5.60;99.90;;;;;;4911057;29;20217;-86
2022/01/29 15:08:35;;;;;;;0.60;0.60;;;5.70;99.90;;;;;;4911660;29;20748;-86
2022/01/29 15:11:42;;;;;;;0.70;0.70;;;5.80;99.90;;;;;;4929455;29;20224;-86
2022/01/29 15:14:37;;;;;;;0.60;0.60;;;5.90;99.90;;;;;;4939126;29;20216;-87
2022/01/29 15:17:06;;;;;;;0.50;0.50;;;5.70;99.90;;;;;;4962488;28;20250;-87
2022/01/29 15:20:50;;;;;;;0.65;0.65;;;5.60;99.90;;;;;;4956751;28;20217;-87
2022/01/29 15:23:52;;;;;;;;;;;;;;;;;;;;;
2022/01/29 15:27:17;;;;;;;;;;;;;;;;;;;;;
2022/01/29 15:30:12;;;;;;;0.50;0.50;;;5.80;99.90;;;;;;4945646;29;20220;-87
2022/01/29 15:32:53;;;;;;;0.55;0.55;;;5.80;99.90;;;;;;4992333;28;20682;-87
2022/01/29 15:35:38;;;;;;;0.65;0.65;;;5.70;99.90;;;;;;5002966;28;20317;-86
2022/01/29 15:42:00;;;;;;;0.60;0.60;;;5.70;99.90;;;;;;5031264;28;20228;-88
2022/01/29 15:44:59;;;;;;;0.70;0.70;;;5.70;99.90;;;;;;5036642;28;20320;-89
2022/01/29 15:47:48;;;;;;;0.50;0.50;;;5.60;99.90;;;;;;4995844;28;20217;-88
2022/01/29 15:50:40;;;;;;;0.68;0.68;;;5.70;99.90;;;;;;5017315;28;20251;-87
2022/01/29 15:53:12;;;;;;;0.60;0.60;;;5.70;99.90;;;;;;5033008;28;20233;-89
2022/01/29 15:55:44;;;;;;;0.60;0.60;;;5.60;99.90;;;;;;5027949;28;20519;-88
2022/01/29 15:58:18;;;;;;;0.70;0.70;;;5.50;99.90;;;;;;5043645;28;20615;-88
2022/01/29 16:00:46;;;;;;;0.90;0.90;;;5.60;99.90;;;;;;5051587;28;20213;-88
2022/01/29 16:03:12;;;;;;;0.60;0.60;;;5.60;99.90;;;;;;5033823;28;20541;-88
2022/01/29 16:05:40;;;;;;;0.63;0.63;;;5.70;99.90;;;;;;5044451;28;20206;-88
2022/01/29 16:08:06;;;;;;;0.65;0.65;;;5.60;99.90;;;;;;5040514;28;20230;-87
2022/01/29 16:10:31;;;;;;;0.60;0.60;;;5.60;99.90;;;;;;5030911;28;20316;-88
2022/01/29 16:12:57;;;;;;;0.70;0.70;;;5.50;99.90;;;;;;5028714;28;20210;-87
2022/01/29 16:15:23;;;;;;;0.60;0.60;;;5.50;99.90;;;;;;5024057;28;20201;-88
2022/01/29 16:17:48;;;;;;;0.52;0.52;;;5.40;99.90;;;;;;5032182;28;20232;-87
2022/01/29 16:20:14;;;;;;;0.70;0.70;;;5.40;99.90;;;;;;5035778;28;20674;-88
2022/01/29 16:22:41;;;;;;;0.73;0.73;;;5.50;99.90;;;;;;5017965;28;20230;-88
2022/01/29 16:25:09;;;;;;;0.60;0.60;;;5.50;99.90;;;;;;5033291;28;20202;-89
2022/01/29 16:27:35;;;;;;;0.60;0.60;;;5.50;99.90;;;;;;5035139;28;20193;-86
2022/01/29 16:30:01;;;;;;;0.70;0.70;;;5.40;99.90;;;;;;5035499;28;20246;-88
2022/01/29 16:32:27;;;;;;;0.60;0.60;;;5.40;99.90;;;;;;5035118;28;20680;-89
2022/01/29 16:34:54;;;;;;;0.50;0.50;;;5.40;99.90;;;;;;5033991;28;20231;-89
2022/01/29 16:37:19;;;;;;;0.50;0.50;;;5.30;99.90;;;;;;5051008;28;20208;-87
2022/01/29 16:39:45;;;;;;;0.50;0.50;;;5.30;99.90;;;;;;5017253;28;20198;-88
2022/01/29 16:42:11;;;;;;;0.50;0.50;;;5.20;99.90;;;;;;5030327;28;20215;-86
2022/01/29 16:44:37;;;;;;;0.60;0.60;;;5.30;99.90;;;;;;5023685;28;20202;-87
2022/01/29 16:47:04;;;;;;;0.40;0.40;;;5.30;99.90;;;;;;5006358;28;20249;-86
2022/01/29 16:49:31;;;;;;;0.55;0.55;;;5.40;99.90;;;;;;5037523;28;20588;-87
2022/01/29 16:51:57;;;;;;;0.60;0.60;;;5.30;99.90;;;;;;5033403;28;20221;-87
2022/01/29 16:54:23;;;;;;;0.60;0.60;;;5.30;99.90;;;;;;5024140;28;20213;-87
2022/01/29 16:56:52;;;;;;;0.70;0.70;;;5.30;99.90;;;;;;5024052;28;20201;-87
2022/01/29 16:59:19;;;;;;;0.60;0.60;;;5.30;99.90;;;;;;5032500;28;20249;-86
2022/01/29 17:01:57;;;;;;;0.50;0.50;;;5.30;99.90;;;;;;5030170;28;20209;-86